sensor_id;sensor_type;location;lat;lon;timestamp;pressure;altitude;pressure_sealevel;temperature;humidity
52935;BME280;38802;50.198;19.796;2023-02-14T00:00:48;97801.02;;;1.20;94.74
52935;BME280;38802;50.198;19.796;2023-02-14T00:03:25;97801.71;;;1.19;94.82
52935;BME280;38802;50.198;19.796;2023-02-14T00:05:52;97804.48;;;1.18;94.79
52935;BME280;38802;50.198;19.796;2023-02-14T00:08:18;97803.48;;;1.17;94.91
52935;BME280;38802;50.198;19.796;2023-02-14T00:10:45;97801.95;;;1.16;94.87
52935;BME280;38802;50.198;19.796;2023-02-14T00:13:12;97806.05;;;1.17;95.06
52935;BME280;38802;50.198;19.796;2023-02-14T00:15:38;97803.99;;;1.17;95.10
52935;BME280;38802;50.198;19.796;2023-02-14T00:18:05;97805.55;;;1.16;94.96
52935;BME280;38802;50.198;19.796;2023-02-14T00:20:32;97806.77;;;1.15;94.89
52935;BME280;38802;50.198;19.796;2023-02-14T00:22:58;97811.38;;;1.16;94.88
52935;BME280;38802;50.198;19.796;2023-02-14T00:25:26;97811.73;;;1.15;94.89
52935;BME280;38802;50.198;19.796;2023-02-14T00:27:52;97813.80;;;1.15;94.81
52935;BME280;38802;50.198;19.796;2023-02-14T00:30:20;97812.95;;;1.15;94.85
52935;BME280;38802;50.198;19.796;2023-02-14T00:32:47;97810.60;;;1.12;94.85
52935;BME280;38802;50.198;19.796;2023-02-14T00:35:16;97813.34;;;1.12;94.75
52935;BME280;38802;50.198;19.796;2023-02-14T00:37:44;97811.50;;;1.10;94.94
52935;BME280;38802;50.198;19.796;2023-02-14T00:40:11;97808.08;;;1.10;94.69
52935;BME280;38802;50.198;19.796;2023-02-14T00:42:38;97805.52;;;1.09;94.55
52935;BME280;38802;50.198;19.796;2023-02-14T00:45:05;97803.86;;;1.07;94.59
52935;BME280;38802;50.198;19.796;2023-02-14T00:47:34;97798.73;;;1.06;94.52
52935;BME280;38802;50.198;19.796;2023-02-14T00:50:01;97804.59;;;1.04;94.33
52935;BME280;38802;50.198;19.796;2023-02-14T00:52:29;97799.67;;;1.02;94.41
52935;BME280;38802;50.198;19.796;2023-02-14T00:54:57;97797.25;;;1.04;94.52
52935;BME280;38802;50.198;19.796;2023-02-14T00:57:24;97794.50;;;1.04;94.18
52935;BME280;38802;50.198;19.796;2023-02-14T00:59:50;97792.63;;;1.03;94.35
52935;BME280;38802;50.198;19.796;2023-02-14T01:02:17;97792.29;;;1.04;94.39
52935;BME280;38802;50.198;19.796;2023-02-14T01:04:44;97790.56;;;1.05;94.24
52935;BME280;38802;50.198;19.796;2023-02-14T01:07:11;97790.36;;;1.06;94.37
52935;BME280;38802;50.198;19.796;2023-02-14T01:09:37;97786.08;;;1.06;94.25
52935;BME280;38802;50.198;19.796;2023-02-14T01:12:04;97793.25;;;1.06;94.22
52935;BME280;38802;50.198;19.796;2023-02-14T01:14:31;97792.58;;;1.06;94.23
52935;BME280;38802;50.198;19.796;2023-02-14T01:16:57;97795.83;;;1.06;94.24
52935;BME280;38802;50.198;19.796;2023-02-14T01:19:24;97798.75;;;1.06;94.25
52935;BME280;38802;50.198;19.796;2023-02-14T01:21:51;97799.77;;;1.05;94.20
52935;BME280;38802;50.198;19.796;2023-02-14T01:24:21;97793.77;;;1.07;94.19
52935;BME280;38802;50.198;19.796;2023-02-14T01:26:48;97799.42;;;1.06;94.11
52935;BME280;38802;50.198;19.796;2023-02-14T01:29:15;97798.55;;;1.07;94.09
52935;BME280;38802;50.198;19.796;2023-02-14T01:31:41;97798.23;;;1.06;94.20
52935;BME280;38802;50.198;19.796;2023-02-14T01:34:08;97798.90;;;1.07;94.20
52935;BME280;38802;50.198;19.796;2023-02-14T01:36:37;97799.05;;;1.08;94.23
52935;BME280;38802;50.198;19.796;2023-02-14T01:39:07;97795.91;;;1.11;94.22
52935;BME280;38802;50.198;19.796;2023-02-14T01:41:37;97791.31;;;1.09;94.16
52935;BME280;38802;50.198;19.796;2023-02-14T01:46:43;97786.17;;;1.09;94.02
52935;BME280;38802;50.198;19.796;2023-02-14T01:49:18;97784.31;;;1.08;94.08
52935;BME280;38802;50.198;19.796;2023-02-14T01:52:08;97777.27;;;1.10;94.14
52935;BME280;38802;50.198;19.796;2023-02-14T01:54:40;97776.44;;;1.08;93.96
52935;BME280;38802;50.198;19.796;2023-02-14T01:57:11;97779.04;;;1.07;93.93
52935;BME280;38802;50.198;19.796;2023-02-14T01:59:46;97773.23;;;1.06;94.16
52935;BME280;38802;50.198;19.796;2023-02-14T02:02:15;97779.54;;;1.08;94.09
52935;BME280;38802;50.198;19.796;2023-02-14T02:04:51;97772.89;;;1.07;94.04
52935;BME280;38802;50.198;19.796;2023-02-14T02:07:22;97775.42;;;1.08;94.06
52935;BME280;38802;50.198;19.796;2023-02-14T02:09:53;97774.07;;;1.07;94.09
52935;BME280;38802;50.198;19.796;2023-02-14T02:12:25;97776.13;;;1.07;94.09
52935;BME280;38802;50.198;19.796;2023-02-14T02:14:55;97775.10;;;1.07;94.16
52935;BME280;38802;50.198;19.796;2023-02-14T02:40:17;97771.77;;;1.11;94.16
52935;BME280;38802;50.198;19.796;2023-02-14T02:48:25;97779.66;;;1.10;94.16
52935;BME280;38802;50.198;19.796;2023-02-14T02:50:58;97787.20;;;1.09;94.17
52935;BME280;38802;50.198;19.796;2023-02-14T02:56:56;97769.96;;;1.07;94.11
52935;BME280;38802;50.198;19.796;2023-02-14T03:04:46;97767.31;;;1.03;94.20
52935;BME280;38802;50.198;19.796;2023-02-14T03:07:35;97771.46;;;1.01;94.08
52935;BME280;38802;50.198;19.796;2023-02-14T03:23:55;97781.98;;;1.05;94.19
52935;BME280;38802;50.198;19.796;2023-02-14T03:26:28;97776.12;;;1.07;94.31
52935;BME280;38802;50.198;19.796;2023-02-14T03:37:13;97786.88;;;1.09;94.28
52935;BME280;38802;50.198;19.796;2023-02-14T03:40:08;97786.69;;;1.09;94.32
52935;BME280;38802;50.198;19.796;2023-02-14T03:42:43;97787.21;;;1.09;94.21
52935;BME280;38802;50.198;19.796;2023-02-14T03:45:13;97790.29;;;1.09;94.37
52935;BME280;38802;50.198;19.796;2023-02-14T03:47:43;97793.08;;;1.07;94.21
52935;BME280;38802;50.198;19.796;2023-02-14T03:50:17;97782.58;;;1.09;94.16
52935;BME280;38802;50.198;19.796;2023-02-14T03:52:47;97786.40;;;1.07;94.23
52935;BME280;38802;50.198;19.796;2023-02-14T03:55:21;97786.39;;;1.07;94.38
52935;BME280;38802;50.198;19.796;2023-02-14T03:58:13;97787.54;;;1.10;94.30
52935;BME280;38802;50.198;19.796;2023-02-14T04:00:43;97790.46;;;1.09;94.26
52935;BME280;38802;50.198;19.796;2023-02-14T04:03:13;97793.90;;;1.08;94.21
52935;BME280;38802;50.198;19.796;2023-02-14T04:05:44;97790.31;;;1.07;94.13
52935;BME280;38802;50.198;19.796;2023-02-14T04:08:27;97792.23;;;1.06;94.13
52935;BME280;38802;50.198;19.796;2023-02-14T04:10:57;97790.85;;;1.06;94.15
52935;BME280;38802;50.198;19.796;2023-02-14T04:13:25;97791.04;;;1.06;94.19
52935;BME280;38802;50.198;19.796;2023-02-14T04:15:52;97787.12;;;1.05;94.23
52935;BME280;38802;50.198;19.796;2023-02-14T04:18:19;97792.08;;;1.05;94.19
52935;BME280;38802;50.198;19.796;2023-02-14T04:21:04;97793.95;;;1.06;94.39
52935;BME280;38802;50.198;19.796;2023-02-14T04:23:31;97795.46;;;1.07;94.11
52935;BME280;38802;50.198;19.796;2023-02-14T04:25:57;97794.11;;;1.06;94.23
52935;BME280;38802;50.198;19.796;2023-02-14T04:28:24;97798.20;;;1.07;94.38
52935;BME280;38802;50.198;19.796;2023-02-14T04:30:50;97800.60;;;1.07;94.35
52935;BME280;38802;50.198;19.796;2023-02-14T04:33:18;97800.58;;;1.08;94.15
52935;BME280;38802;50.198;19.796;2023-02-14T04:35:44;97796.48;;;1.08;94.24
52935;BME280;38802;50.198;19.796;2023-02-14T04:38:11;97797.82;;;1.09;94.12
52935;BME280;38802;50.198;19.796;2023-02-14T04:40:38;97802.11;;;1.08;94.15
52935;BME280;38802;50.198;19.796;2023-02-14T04:43:04;97801.98;;;1.06;94.35
52935;BME280;38802;50.198;19.796;2023-02-14T04:45:32;97805.91;;;1.07;94.18
52935;BME280;38802;50.198;19.796;2023-02-14T04:47:59;97797.36;;;1.07;94.18
52935;BME280;38802;50.198;19.796;2023-02-14T04:50:26;97799.23;;;1.07;94.38
52935;BME280;38802;50.198;19.796;2023-02-14T04:52:52;97797.30;;;1.10;94.22
52935;BME280;38802;50.198;19.796;2023-02-14T04:55:19;97800.05;;;1.09;94.14
52935;BME280;38802;50.198;19.796;2023-02-14T04:57:46;97796.80;;;1.08;94.20
52935;BME280;38802;50.198;19.796;2023-02-14T05:00:13;97801.25;;;1.08;94.14
52935;BME280;38802;50.198;19.796;2023-02-14T05:02:40;97801.95;;;1.07;94.11
52935;BME280;38802;50.198;19.796;2023-02-14T05:05:07;97805.05;;;1.07;94.04
52935;BME280;38802;50.198;19.796;2023-02-14T05:07:35;97808.98;;;1.07;94.27
52935;BME280;38802;50.198;19.796;2023-02-14T05:10:03;97807.64;;;1.06;94.02
52935;BME280;38802;50.198;19.796;2023-02-14T05:12:30;97809.84;;;1.07;94.12
52935;BME280;38802;50.198;19.796;2023-02-14T05:14:57;97808.11;;;1.08;94.31
52935;BME280;38802;50.198;19.796;2023-02-14T05:17:23;97813.02;;;1.10;94.32
52935;BME280;38802;50.198;19.796;2023-02-14T05:19:50;97814.89;;;1.11;94.20
52935;BME280;38802;50.198;19.796;2023-02-14T05:22:17;97814.88;;;1.12;94.10
52935;BME280;38802;50.198;19.796;2023-02-14T05:24:45;97813.85;;;1.12;94.12
52935;BME280;38802;50.198;19.796;2023-02-14T05:27:11;97812.67;;;1.10;94.13
52935;BME280;38802;50.198;19.796;2023-02-14T05:29:38;97812.02;;;1.09;93.98
52935;BME280;38802;50.198;19.796;2023-02-14T05:32:05;97809.98;;;1.09;94.11
52935;BME280;38802;50.198;19.796;2023-02-14T05:34:32;97809.33;;;1.07;94.13
52935;BME280;38802;50.198;19.796;2023-02-14T05:36:59;97809.11;;;1.09;94.15
52935;BME280;38802;50.198;19.796;2023-02-14T05:39:27;97810.66;;;1.09;94.01
52935;BME280;38802;50.198;19.796;2023-02-14T05:41:54;97815.46;;;1.08;94.05
52935;BME280;38802;50.198;19.796;2023-02-14T05:44:24;97818.40;;;1.07;94.05
52935;BME280;38802;50.198;19.796;2023-02-14T05:46:51;97819.08;;;1.07;94.10
52935;BME280;38802;50.198;19.796;2023-02-14T05:49:18;97820.10;;;1.07;94.12
52935;BME280;38802;50.198;19.796;2023-02-14T05:51:45;97822.86;;;1.07;94.00
52935;BME280;38802;50.198;19.796;2023-02-14T05:54:11;97822.31;;;1.08;94.27
52935;BME280;38802;50.198;19.796;2023-02-14T05:56:38;97822.77;;;1.11;94.27
52935;BME280;38802;50.198;19.796;2023-02-14T05:59:05;97821.71;;;1.13;94.15
52935;BME280;38802;50.198;19.796;2023-02-14T06:01:31;97828.37;;;1.13;94.14
52935;BME280;38802;50.198;19.796;2023-02-14T06:03:58;97830.27;;;1.12;94.11
52935;BME280;38802;50.198;19.796;2023-02-14T06:06:25;97830.62;;;1.12;94.19
52935;BME280;38802;50.198;19.796;2023-02-14T06:08:52;97832.50;;;1.12;94.12
52935;BME280;38802;50.198;19.796;2023-02-14T06:11:18;97824.44;;;1.14;94.07
52935;BME280;38802;50.198;19.796;2023-02-14T06:17:32;97831.45;;;1.21;94.37
52935;BME280;38802;50.198;19.796;2023-02-14T06:19:59;97826.21;;;1.18;94.04
52935;BME280;38802;50.198;19.796;2023-02-14T06:22:26;97828.81;;;1.17;93.99
52935;BME280;38802;50.198;19.796;2023-02-14T06:24:55;97824.86;;;1.17;94.23
52935;BME280;38802;50.198;19.796;2023-02-14T06:27:21;97829.35;;;1.15;93.96
52935;BME280;38802;50.198;19.796;2023-02-14T06:29:48;97826.11;;;1.15;93.90
52935;BME280;38802;50.198;19.796;2023-02-14T06:32:15;97826.84;;;1.13;93.81
52935;BME280;38802;50.198;19.796;2023-02-14T06:34:42;97828.41;;;1.11;93.92
52935;BME280;38802;50.198;19.796;2023-02-14T06:37:08;97830.50;;;1.09;93.95
52935;BME280;38802;50.198;19.796;2023-02-14T06:39:35;97830.15;;;1.10;93.81
52935;BME280;38802;50.198;19.796;2023-02-14T06:42:02;97834.46;;;1.08;93.79
52935;BME280;38802;50.198;19.796;2023-02-14T06:44:28;97831.92;;;1.07;93.85
52935;BME280;38802;50.198;19.796;2023-02-14T06:46:55;97828.12;;;1.09;93.77
52935;BME280;38802;50.198;19.796;2023-02-14T06:49:22;97829.70;;;1.07;93.67
52935;BME280;38802;50.198;19.796;2023-02-14T06:51:49;97830.77;;;1.04;93.86
52935;BME280;38802;50.198;19.796;2023-02-14T06:54:16;97825.60;;;1.06;93.67
52935;BME280;38802;50.198;19.796;2023-02-14T06:56:42;97831.82;;;1.03;93.83
52935;BME280;38802;50.198;19.796;2023-02-14T06:59:09;97835.74;;;1.04;93.68
52935;BME280;38802;50.198;19.796;2023-02-14T07:01:36;97838.14;;;1.04;93.86
52935;BME280;38802;50.198;19.796;2023-02-14T07:04:03;97838.51;;;1.03;93.75
52935;BME280;38802;50.198;19.796;2023-02-14T07:06:30;97838.61;;;1.06;93.53
52935;BME280;38802;50.198;19.796;2023-02-14T07:08:58;97836.75;;;1.05;93.73
52935;BME280;38802;50.198;19.796;2023-02-14T07:11:25;97838.95;;;1.06;93.63
52935;BME280;38802;50.198;19.796;2023-02-14T07:13:54;97837.27;;;1.05;93.73
52935;BME280;38802;50.198;19.796;2023-02-14T07:16:20;97843.44;;;1.05;93.75
52935;BME280;38802;50.198;19.796;2023-02-14T07:18:47;97847.52;;;1.05;93.81
52935;BME280;38802;50.198;19.796;2023-02-14T07:21:14;97850.73;;;1.08;93.90
52935;BME280;38802;50.198;19.796;2023-02-14T07:23:41;97846.23;;;1.10;93.90
52935;BME280;38802;50.198;19.796;2023-02-14T07:26:12;97852.52;;;1.12;93.87
52935;BME280;38802;50.198;19.796;2023-02-14T07:28:47;97854.34;;;1.16;93.91
52935;BME280;38802;50.198;19.796;2023-02-14T07:31:18;97855.84;;;1.18;93.82
52935;BME280;38802;50.198;19.796;2023-02-14T07:33:46;97858.23;;;1.19;93.84
52935;BME280;38802;50.198;19.796;2023-02-14T07:36:13;97858.02;;;1.20;93.78
52935;BME280;38802;50.198;19.796;2023-02-14T07:38:39;97857.14;;;1.21;93.65
52935;BME280;38802;50.198;19.796;2023-02-14T07:41:06;97858.01;;;1.21;93.75
52935;BME280;38802;50.198;19.796;2023-02-14T07:43:33;97864.29;;;1.23;93.83
52935;BME280;38802;50.198;19.796;2023-02-14T07:46:01;97867.52;;;1.24;93.76
52935;BME280;38802;50.198;19.796;2023-02-14T07:48:28;97862.86;;;1.26;93.64
52935;BME280;38802;50.198;19.796;2023-02-14T07:50:59;97865.08;;;1.27;93.69
52935;BME280;38802;50.198;19.796;2023-02-14T07:53:26;97864.02;;;1.28;93.70
52935;BME280;38802;50.198;19.796;2023-02-14T07:55:53;97859.86;;;1.32;93.71
52935;BME280;38802;50.198;19.796;2023-02-14T07:58:20;97859.96;;;1.36;93.69
52935;BME280;38802;50.198;19.796;2023-02-14T08:00:47;97863.30;;;1.40;93.89
52935;BME280;38802;50.198;19.796;2023-02-14T08:03:14;97859.83;;;1.42;93.85
52935;BME280;38802;50.198;19.796;2023-02-14T08:05:41;97858.59;;;1.44;93.88
52935;BME280;38802;50.198;19.796;2023-02-14T08:08:08;97859.19;;;1.48;93.98
52935;BME280;38802;50.198;19.796;2023-02-14T08:10:35;97855.67;;;1.52;93.75
52935;BME280;38802;50.198;19.796;2023-02-14T08:13:02;97855.98;;;1.54;93.51
52935;BME280;38802;50.198;19.796;2023-02-14T08:15:34;97858.70;;;1.55;93.54
52935;BME280;38802;50.198;19.796;2023-02-14T08:18:20;97859.86;;;1.57;93.49
52935;BME280;38802;50.198;19.796;2023-02-14T08:20:50;97859.31;;;1.59;93.58
52935;BME280;38802;50.198;19.796;2023-02-14T08:23:19;97853.23;;;1.62;93.58
52935;BME280;38802;50.198;19.796;2023-02-14T08:25:50;97850.45;;;1.65;93.42
52935;BME280;38802;50.198;19.796;2023-02-14T08:28:17;97850.24;;;1.66;93.17
52935;BME280;38802;50.198;19.796;2023-02-14T08:30:45;97855.17;;;1.69;93.36
52935;BME280;38802;50.198;19.796;2023-02-14T08:33:11;97850.62;;;1.73;93.22
52935;BME280;38802;50.198;19.796;2023-02-14T08:35:38;97857.63;;;1.75;93.29
52935;BME280;38802;50.198;19.796;2023-02-14T08:38:05;97855.48;;;1.79;92.97
52935;BME280;38802;50.198;19.796;2023-02-14T08:40:33;97855.73;;;1.83;93.11
52935;BME280;38802;50.198;19.796;2023-02-14T08:43:05;97856.48;;;1.88;93.05
52935;BME280;38802;50.198;19.796;2023-02-14T08:45:32;97859.82;;;1.92;93.12
52935;BME280;38802;50.198;19.796;2023-02-14T08:48:04;97861.15;;;1.94;92.75
52935;BME280;38802;50.198;19.796;2023-02-14T08:50:31;97854.58;;;1.96;92.83
52935;BME280;38802;50.198;19.796;2023-02-14T08:52:58;97854.98;;;2.01;92.71
52935;BME280;38802;50.198;19.796;2023-02-14T08:55:25;97859.38;;;2.04;92.42
52935;BME280;38802;50.198;19.796;2023-02-14T08:57:56;97856.94;;;2.06;92.66
52935;BME280;38802;50.198;19.796;2023-02-14T09:00:23;97856.77;;;2.12;92.71
52935;BME280;38802;50.198;19.796;2023-02-14T09:02:51;97858.04;;;2.18;92.84
52935;BME280;38802;50.198;19.796;2023-02-14T09:05:19;97856.61;;;2.21;92.27
52935;BME280;38802;50.198;19.796;2023-02-14T09:07:49;97860.87;;;2.22;92.21
52935;BME280;38802;50.198;19.796;2023-02-14T09:10:15;97863.46;;;2.29;92.06
52935;BME280;38802;50.198;19.796;2023-02-14T09:12:44;97870.20;;;2.33;92.26
52935;BME280;38802;50.198;19.796;2023-02-14T09:15:11;97867.65;;;2.40;92.01
52935;BME280;38802;50.198;19.796;2023-02-14T09:17:39;97869.83;;;2.41;91.94
52935;BME280;38802;50.198;19.796;2023-02-14T09:20:08;97874.77;;;2.43;91.90
52935;BME280;38802;50.198;19.796;2023-02-14T09:22:35;97881.86;;;2.47;91.81
52935;BME280;38802;50.198;19.796;2023-02-14T09:25:03;97878.88;;;2.50;91.25
52935;BME280;38802;50.198;19.796;2023-02-14T09:27:30;97876.13;;;2.50;91.02
52935;BME280;38802;50.198;19.796;2023-02-14T09:29:57;97884.52;;;2.51;90.72
52935;BME280;38802;50.198;19.796;2023-02-14T09:32:24;97882.22;;;2.54;90.91
52935;BME280;38802;50.198;19.796;2023-02-14T09:34:55;97883.55;;;2.55;91.24
52935;BME280;38802;50.198;19.796;2023-02-14T09:37:41;97883.80;;;2.60;91.00
52935;BME280;38802;50.198;19.796;2023-02-14T09:40:26;97882.96;;;2.60;91.01
52935;BME280;38802;50.198;19.796;2023-02-14T09:45:35;97884.92;;;2.71;91.01
52935;BME280;38802;50.198;19.796;2023-02-14T09:50:48;97879.63;;;2.83;90.28
52935;BME280;38802;50.198;19.796;2023-02-14T09:55:55;97889.04;;;2.78;90.56
52935;BME280;38802;50.198;19.796;2023-02-14T09:58:32;97883.50;;;2.79;90.09
52935;BME280;38802;50.198;19.796;2023-02-14T10:01:04;97885.90;;;2.80;90.22
52935;BME280;38802;50.198;19.796;2023-02-14T10:06:49;97890.48;;;2.88;90.13
52935;BME280;38802;50.198;19.796;2023-02-14T10:12:15;97887.85;;;2.91;89.64
52935;BME280;38802;50.198;19.796;2023-02-14T10:14:46;97884.73;;;2.91;89.52
52935;BME280;38802;50.198;19.796;2023-02-14T10:17:18;97881.67;;;2.91;89.63
52935;BME280;38802;50.198;19.796;2023-02-14T10:20:00;97879.95;;;2.91;89.38
52935;BME280;38802;50.198;19.796;2023-02-14T10:22:42;97882.55;;;2.90;88.80
52935;BME280;38802;50.198;19.796;2023-02-14T10:25:22;97880.86;;;2.89;88.93
52935;BME280;38802;50.198;19.796;2023-02-14T10:27:54;97882.30;;;2.86;88.63
52935;BME280;38802;50.198;19.796;2023-02-14T10:30:23;97882.68;;;2.85;88.51
52935;BME280;38802;50.198;19.796;2023-02-14T10:33:17;97883.53;;;2.85;88.48
52935;BME280;38802;50.198;19.796;2023-02-14T10:35:49;97887.50;;;2.84;88.26
52935;BME280;38802;50.198;19.796;2023-02-14T10:46:36;97891.98;;;2.90;88.36
52935;BME280;38802;50.198;19.796;2023-02-14T10:54:43;97890.55;;;2.92;88.51
52935;BME280;38802;50.198;19.796;2023-02-14T10:57:39;97886.44;;;2.98;88.55
52935;BME280;38802;50.198;19.796;2023-02-14T11:02:45;97882.98;;;3.00;87.73
52935;BME280;38802;50.198;19.796;2023-02-14T11:05:46;97882.81;;;2.93;87.44
52935;BME280;38802;50.198;19.796;2023-02-14T11:08:37;97881.30;;;2.92;87.86
52935;BME280;38802;50.198;19.796;2023-02-14T11:11:24;97877.05;;;2.96;88.00
52935;BME280;38802;50.198;19.796;2023-02-14T11:13:53;97873.48;;;3.01;87.28
52935;BME280;38802;50.198;19.796;2023-02-14T11:16:32;97874.68;;;3.02;87.12
52935;BME280;38802;50.198;19.796;2023-02-14T11:21:43;97866.86;;;2.99;87.14
52935;BME280;38802;50.198;19.796;2023-02-14T11:24:37;97867.51;;;3.00;87.12
52935;BME280;38802;50.198;19.796;2023-02-14T11:32:09;97866.35;;;3.06;87.18
52935;BME280;38802;50.198;19.796;2023-02-14T11:39:53;97860.61;;;3.22;86.44
52935;BME280;38802;50.198;19.796;2023-02-14T11:45:03;97854.68;;;3.25;86.67
52935;BME280;38802;50.198;19.796;2023-02-14T11:47:34;97849.77;;;3.29;86.47
52935;BME280;38802;50.198;19.796;2023-02-14T11:50:27;97852.14;;;3.30;86.39
52935;BME280;38802;50.198;19.796;2023-02-14T11:52:54;97852.07;;;3.32;86.40
52935;BME280;38802;50.198;19.796;2023-02-14T11:55:28;97848.02;;;3.30;86.44
52935;BME280;38802;50.198;19.796;2023-02-14T11:57:56;97845.55;;;3.26;86.17
52935;BME280;38802;50.198;19.796;2023-02-14T12:00:23;97844.77;;;3.23;86.11
52935;BME280;38802;50.198;19.796;2023-02-14T12:02:53;97841.30;;;3.36;86.25
52935;BME280;38802;50.198;19.796;2023-02-14T12:05:31;97839.73;;;3.37;85.56
52935;BME280;38802;50.198;19.796;2023-02-14T12:08:01;97842.16;;;3.30;85.46
52935;BME280;38802;50.198;19.796;2023-02-14T12:12:58;97839.80;;;3.23;85.38
52935;BME280;38802;50.198;19.796;2023-02-14T12:23:41;97829.70;;;3.09;85.02
52935;BME280;38802;50.198;19.796;2023-02-14T12:29:06;97820.84;;;3.07;84.97
52935;BME280;38802;50.198;19.796;2023-02-14T12:31:40;97816.86;;;3.07;85.32
52935;BME280;38802;50.198;19.796;2023-02-14T12:34:10;97816.14;;;3.09;85.14
52935;BME280;38802;50.198;19.796;2023-02-14T12:50:16;97797.45;;;3.20;84.67
52935;BME280;38802;50.198;19.796;2023-02-14T12:53:00;97792.55;;;3.18;84.58
52935;BME280;38802;50.198;19.796;2023-02-14T12:55:48;97786.80;;;3.14;84.56
52935;BME280;38802;50.198;19.796;2023-02-14T13:13:01;97787.09;;;3.10;84.78
52935;BME280;38802;50.198;19.796;2023-02-14T13:15:43;97786.77;;;3.09;84.48
52935;BME280;38802;50.198;19.796;2023-02-14T13:21:00;97788.07;;;3.06;84.77
52935;BME280;38802;50.198;19.796;2023-02-14T13:23:45;97790.51;;;3.04;84.71
52935;BME280;38802;50.198;19.796;2023-02-14T13:26:19;97785.88;;;3.03;84.52
52935;BME280;38802;50.198;19.796;2023-02-14T13:28:51;97785.39;;;3.03;84.44
52935;BME280;38802;50.198;19.796;2023-02-14T13:31:22;97786.77;;;3.02;84.49
52935;BME280;38802;50.198;19.796;2023-02-14T13:33:59;97785.71;;;3.04;84.47
52935;BME280;38802;50.198;19.796;2023-02-14T13:36:30;97787.59;;;3.04;84.49
52935;BME280;38802;50.198;19.796;2023-02-14T13:39:00;97784.55;;;3.01;84.17
52935;BME280;38802;50.198;19.796;2023-02-14T13:41:28;97780.70;;;2.98;84.19
52935;BME280;38802;50.198;19.796;2023-02-14T13:43:59;97780.39;;;2.97;84.45
52935;BME280;38802;50.198;19.796;2023-02-14T13:49:23;97782.09;;;2.97;84.30
52935;BME280;38802;50.198;19.796;2023-02-14T13:51:55;97775.73;;;2.98;84.43
52935;BME280;38802;50.198;19.796;2023-02-14T13:57:00;97773.78;;;2.94;84.24
52935;BME280;38802;50.198;19.796;2023-02-14T13:59:33;97775.04;;;2.92;84.20
52935;BME280;38802;50.198;19.796;2023-02-14T14:14:41;97767.52;;;2.78;84.31
52935;BME280;38802;50.198;19.796;2023-02-14T14:17:19;97770.13;;;2.71;84.46
52935;BME280;38802;50.198;19.796;2023-02-14T14:19:47;97768.27;;;2.69;84.44
52935;BME280;38802;50.198;19.796;2023-02-14T14:22:17;97771.22;;;2.68;84.33
52935;BME280;38802;50.198;19.796;2023-02-14T14:24:52;97772.80;;;2.67;84.50
52935;BME280;38802;50.198;19.796;2023-02-14T14:27:41;97770.80;;;2.65;84.69
52935;BME280;38802;50.198;19.796;2023-02-14T14:30:20;97771.09;;;2.67;84.88
52935;BME280;38802;50.198;19.796;2023-02-14T14:32:50;97767.98;;;2.68;84.52
52935;BME280;38802;50.198;19.796;2023-02-14T14:35:23;97773.56;;;2.64;84.62
52935;BME280;38802;50.198;19.796;2023-02-14T14:37:57;97773.63;;;2.61;84.53
52935;BME280;38802;50.198;19.796;2023-02-14T14:40:33;97772.46;;;2.59;84.63
52935;BME280;38802;50.198;19.796;2023-02-14T14:43:25;97772.04;;;2.56;84.57
52935;BME280;38802;50.198;19.796;2023-02-14T14:45:58;97773.13;;;2.53;84.68
52935;BME280;38802;50.198;19.796;2023-02-14T14:48:32;97770.85;;;2.49;84.92
52935;BME280;38802;50.198;19.796;2023-02-14T14:51:03;97764.72;;;2.47;84.58
52935;BME280;38802;50.198;19.796;2023-02-14T14:53:55;97769.96;;;2.43;84.81
52935;BME280;38802;50.198;19.796;2023-02-14T14:56:26;97775.19;;;2.40;84.55
52935;BME280;38802;50.198;19.796;2023-02-14T14:58:54;97776.77;;;2.39;84.92
52935;BME280;38802;50.198;19.796;2023-02-14T15:01:37;97773.00;;;2.39;84.89
52935;BME280;38802;50.198;19.796;2023-02-14T15:04:26;97775.03;;;2.39;84.87
52935;BME280;38802;50.198;19.796;2023-02-14T15:06:57;97775.77;;;2.38;85.09
52935;BME280;38802;50.198;19.796;2023-02-14T15:09:30;97777.02;;;2.35;84.71
52935;BME280;38802;50.198;19.796;2023-02-14T15:12:01;97781.86;;;2.34;85.06
52935;BME280;38802;50.198;19.796;2023-02-14T15:14:50;97784.46;;;2.33;85.12
52935;BME280;38802;50.198;19.796;2023-02-14T15:17:26;97781.07;;;2.31;84.97
52935;BME280;38802;50.198;19.796;2023-02-14T15:20:00;97787.27;;;2.30;85.22
52935;BME280;38802;50.198;19.796;2023-02-14T15:25:11;97786.61;;;2.30;85.12
52935;BME280;38802;50.198;19.796;2023-02-14T15:27:40;97787.07;;;2.32;85.24
52935;BME280;38802;50.198;19.796;2023-02-14T15:32:48;97793.73;;;2.33;85.30
52935;BME280;38802;50.198;19.796;2023-02-14T15:35:30;97797.43;;;2.36;85.41
52935;BME280;38802;50.198;19.796;2023-02-14T15:38:02;97798.57;;;2.38;85.56
52935;BME280;38802;50.198;19.796;2023-02-14T15:40:33;97801.58;;;2.41;85.60
52935;BME280;38802;50.198;19.796;2023-02-14T15:43:32;97804.66;;;2.41;85.45
52935;BME280;38802;50.198;19.796;2023-02-14T15:48:57;97806.09;;;2.39;85.45
52935;BME280;38802;50.198;19.796;2023-02-14T15:51:31;97809.54;;;2.38;85.34
52935;BME280;38802;50.198;19.796;2023-02-14T15:54:05;97808.79;;;2.34;85.40
52935;BME280;38802;50.198;19.796;2023-02-14T15:56:39;97810.95;;;2.30;85.43
52935;BME280;38802;50.198;19.796;2023-02-14T15:59:16;97815.83;;;2.27;85.42
52935;BME280;38802;50.198;19.796;2023-02-14T16:04:25;97819.37;;;2.22;85.63
52935;BME280;38802;50.198;19.796;2023-02-14T16:10:01;97831.20;;;2.23;85.69
52935;BME280;38802;50.198;19.796;2023-02-14T16:12:40;97830.65;;;2.24;85.69
52935;BME280;38802;50.198;19.796;2023-02-14T16:15:20;97828.41;;;2.24;85.78
52935;BME280;38802;50.198;19.796;2023-02-14T16:17:48;97830.67;;;2.23;85.81
52935;BME280;38802;50.198;19.796;2023-02-14T16:20:36;97829.69;;;2.21;85.59
52935;BME280;38802;50.198;19.796;2023-02-14T16:23:24;97830.30;;;2.16;85.87
52935;BME280;38802;50.198;19.796;2023-02-14T16:25:54;97832.05;;;2.14;85.75
52935;BME280;38802;50.198;19.796;2023-02-14T16:28:27;97835.77;;;2.09;85.52